Port Orford, OR (97465)

5:27 PM PDT on October 01, 2014 (GMT -0700)
Port Orford RV Village | Change Station
CLOSE
Current Station
Personal Weather Station
Location: Port Orford, OR
Elevation: 47 ft
Nearby Weather Stations

Elev 47 ft 42.76 °N, 124.49 °W | Updated 6 seconds ago

Clear
Clear
65.5 °F
Feels Like 65.5 °F
N
3.0
Wind Variable Wind from NE
Gusts 5.0 mph

Today
High -- | Low -- °F
--% Chance of Precip.
Yesterday
High -- | Low -- °F
Precip. -- in
7:15 AM 6:59 PM
First Quarter, 52% visible
Pressure 30.14 in
Visibility 10.0 miles
Clouds Clear
Dew Point 55 °F
Humidity 68%
Rainfall 0.01 in
Snow Depth 0 in , 0 in , 0 in
UV 1 out of 12
Pollen 2.80 out of 12
Air Quality Not available.
Flu Activity Not available.
METAR KOTH 020015Z 36017G24KT 10SM CLR 18/12 A3014 RMK AO1

More Conditions Fewer Conditions

Pressure 30.14 in
Visibility 10.0 miles
Clouds Clear
Dew Point 55 °F
Humidity 68%
Rainfall 0.01 in
Snow Depth 0 in , 0 in , 0 in
UV 1 out of 12
Pollen 2.80 out of 12
Air Quality Not available.
Flu Activity Not available.
METAR KOTH 020015Z 36017G24KT 10SM CLR 18/12 A3014 RMK AO1

More Conditions Fewer Conditions

10-Day Weather Forecast

Almanac

Astronomy

Oct. 01, 2014 Rise Set
Actual Time 7:15 AM PDT 6:59 PM PDT
Civil Twilight 6:47 AM PDT 7:27 PM PDT
Nautical Twilight 6:14 AM PDT 7:59 PM PDT
Astronomical Twilight 5:41 AM PDT 8:33 PM PDT
Moon 2:26 PM PDT (10/1) No Moon Set
Length of Visible Light 12h 40m
Length of Day
11h 43m
Tomorrow will be 2m 52s shorter.
First Quarter, 52% of the Moon is Illuminated
Today
First Quarter
Oct 8
Full
Oct 15
Last Quarter
Oct 23
New
Oct 30
First Quarter

Today's Extremes

State Highs State Lows

Community

WunderPhotos

Upload Photos

1,758,097 photos uploaded!

WunderBlogs® & News

Nearby

Snow Depth

Station Depth Elevation
Three Creeks Meadow 0 in 5650 ft
Blazed Alder 0 in 3650 ft
Mckenzie 0 in 4800 ft
Greenpoint 0 in 3200 ft
Arbuckle Mountain 1 in 5400 ft

Earthquake Activity

City Distance Mag. Time & Date
No recent earthquake activity has been reported nearby.
Minimum magnitude displayed is 2.5.

Coastal Water Temperatures

Place Temperature
Port Orford, OR 55.0 °F
Crescent City, CA 57.9 °F
Charleston, OR 57.9 °F

Nearby Weather Stations